Okayama, Japan
Current Conditions -  °F | °C
As of 9:00 PM on Friday 31 Oct 2014 (Local Time) from RJOB Reporting Station
Rain Showers Rain Showers  
Wind Chill: 59°   Ceiling: 1000
Heat Index: 59°   Visibility: 1.8mi
Dew Point: 57°   Wind: 8mph
Humidity: 94%   Direction: 70°ENE
Pressure: 30.06"   Gusts: NA
Location:  34.67°N, 133.92°E
Report Text: RJOB 311200Z 07007KT 3000 SHRA BR FEW001 SCT008 BKN010 15/14 Q1018
Loading
Personal Weather Stations






























Interactive Weather Map
Tropical Storm Tracking
New forecast layout! Learn more

10-Day Weather Forecast

Advertisements
Track Severe Weather on mobile